Beloit, KS

2:16 PM CST on February 01, 2015 (GMT -0600)
Kansas | Change Station
CLOSE
Current Station
Personal Weather Station
Location: Beloit, KS
Elevation: 1404 ft
Nearby Weather Stations

Elev 1404 ft 39.46 °N, 98.10 °W | Updated 1 second ago

Snow
Snow
15.2 °F
Feels Like 4 °F
N
8.6
Wind Variable Wind from NW
Gusts 18.0 mph

Today
High -- | Low -- °F
--% Chance of Precip.
Yesterday
High -- | Low -- °F
Precip. -- in
7:39 AM 5:52 PM
Waxing Gibbous, 96% visible
Pressure 30.16 in
Visibility 2.5 miles
Clouds Few 1700 ft
Mostly Cloudy 2700 ft
Overcast 3800 ft
Windchill 4 °F
Dew Point 11 °F
Humidity 82%
Rainfall 0.05 in
Snow Depth Not available.
UV 1 out of 12
Pollen .10 out of 12
Air Quality Not available.
Flu Activity Not available.
SPECI KCNK 012011Z AUTO 33019G28KT 2 1/2SM -SN FEW017 BKN027 OVC038 M11/M14 A3016 RMK AO2 PK WND 33030/2000 P0000 T11061139

More Conditions Fewer Conditions

Pressure 30.16 in
Visibility 2.5 miles
Clouds Few 1700 ft
Mostly Cloudy 2700 ft
Overcast 3800 ft
Windchill 4 °F
Dew Point 11 °F
Humidity 82%
Rainfall 0.05 in
Snow Depth Not available.
UV 1 out of 12
Pollen .10 out of 12
Air Quality Not available.
Flu Activity Not available.
SPECI KCNK 012011Z AUTO 33019G28KT 2 1/2SM -SN FEW017 BKN027 OVC038 M11/M14 A3016 RMK AO2 PK WND 33030/2000 P0000 T11061139

More Conditions Fewer Conditions

10-Day Weather Forecast

Almanac

Astronomy

Feb. 01, 2015 Rise Set
Actual Time
Civil Twilight
Nautical Twilight
Astronomical Twilight
Moon
Length of Visible Light
Length of Day
Tomorrow will be .
, % of the Moon is Illuminated

Today's Extremes

State Highs State Lows

Community

WunderPhotos

Upload Photos

1,792,485 photos uploaded!

WunderBlogs® & News

Nearby

Air Quality

  Air Quality AQ Index Pollutant
Not available.

Snow Depth

Station Depth Elevation

Earthquake Activity

City Distance Mag. Time & Date
Minimum magnitude displayed is 2.5.

Coastal Water Temperatures

Place Temperature

Nearby Weather Stations